sensor_id;sensor_type;location;lat;lon;timestamp;temperature;humidity
48768;DHT22;34933;40.968;14.538;2022-09-09T00:00:27;25.20;99.90
48768;DHT22;34933;40.968;14.538;2022-09-09T00:03:22;25.20;99.90
48768;DHT22;34933;40.968;14.538;2022-09-09T00:06:21;25.20;99.90
48768;DHT22;34933;40.968;14.538;2022-09-09T00:13:20;25.20;99.90
48768;DHT22;34933;40.968;14.538;2022-09-09T00:16:38;25.20;99.90
48768;DHT22;34933;40.968;14.538;2022-09-09T00:19:44;25.20;99.90
48768;DHT22;34933;40.968;14.538;2022-09-09T00:43:29;25.30;99.90
48768;DHT22;34933;40.968;14.538;2022-09-09T00:50:00;25.10;99.90
48768;DHT22;34933;40.968;14.538;2022-09-09T00:53:37;25.10;99.90
48768;DHT22;34933;40.968;14.538;2022-09-09T00:56:30;25.10;99.90
48768;DHT22;34933;40.968;14.538;2022-09-09T00:59:52;25.20;99.90
48768;DHT22;34933;40.968;14.538;2022-09-09T01:02:52;25.20;99.90
48768;DHT22;34933;40.968;14.538;2022-09-09T01:05:45;25.20;99.90
48768;DHT22;34933;40.968;14.538;2022-09-09T01:15:29;25.30;99.90
48768;DHT22;34933;40.968;14.538;2022-09-09T01:18:13;25.30;99.90
48768;DHT22;34933;40.968;14.538;2022-09-09T01:24:31;25.30;99.90
48768;DHT22;34933;40.968;14.538;2022-09-09T01:27:32;25.20;99.90
48768;DHT22;34933;40.968;14.538;2022-09-09T01:30:18;25.20;99.90
48768;DHT22;34933;40.968;14.538;2022-09-09T01:33:04;25.20;99.90
48768;DHT22;34933;40.968;14.538;2022-09-09T01:35:50;25.10;99.90
48768;DHT22;34933;40.968;14.538;2022-09-09T01:38:40;25.10;99.90
48768;DHT22;34933;40.968;14.538;2022-09-09T01:41:24;25.00;99.90
48768;DHT22;34933;40.968;14.538;2022-09-09T01:44:30;24.80;99.90
48768;DHT22;34933;40.968;14.538;2022-09-09T01:47:15;24.70;99.90
48768;DHT22;34933;40.968;14.538;2022-09-09T01:50:20;24.70;99.90
48768;DHT22;34933;40.968;14.538;2022-09-09T01:53:05;24.80;99.90
48768;DHT22;34933;40.968;14.538;2022-09-09T01:59:12;24.80;99.90
48768;DHT22;34933;40.968;14.538;2022-09-09T02:02:11;24.80;99.90
48768;DHT22;34933;40.968;14.538;2022-09-09T02:08:15;24.70;99.90
48768;DHT22;34933;40.968;14.538;2022-09-09T02:11:12;24.60;99.90
48768;DHT22;34933;40.968;14.538;2022-09-09T02:14:15;24.60;99.90
48768;DHT22;34933;40.968;14.538;2022-09-09T02:17:09;24.60;99.90
48768;DHT22;34933;40.968;14.538;2022-09-09T02:20:14;24.50;99.90
48768;DHT22;34933;40.968;14.538;2022-09-09T02:23:19;24.50;99.90
48768;DHT22;34933;40.968;14.538;2022-09-09T02:26:09;24.60;99.90
48768;DHT22;34933;40.968;14.538;2022-09-09T02:28:57;24.50;99.90
48768;DHT22;34933;40.968;14.538;2022-09-09T02:31:44;24.50;99.90
48768;DHT22;34933;40.968;14.538;2022-09-09T02:34:42;24.40;99.90
48768;DHT22;34933;40.968;14.538;2022-09-09T02:37:33;24.40;99.90
48768;DHT22;34933;40.968;14.538;2022-09-09T02:40:19;24.40;99.90
48768;DHT22;34933;40.968;14.538;2022-09-09T02:43:10;24.30;99.90
48768;DHT22;34933;40.968;14.538;2022-09-09T02:46:14;24.30;99.90
48768;DHT22;34933;40.968;14.538;2022-09-09T02:52:04;24.20;99.90
48768;DHT22;34933;40.968;14.538;2022-09-09T02:54:59;24.20;99.90
48768;DHT22;34933;40.968;14.538;2022-09-09T02:57:47;24.20;99.90
48768;DHT22;34933;40.968;14.538;2022-09-09T03:00:34;24.30;99.90
48768;DHT22;34933;40.968;14.538;2022-09-09T03:03:20;24.30;99.90
48768;DHT22;34933;40.968;14.538;2022-09-09T03:06:08;24.40;99.90
48768;DHT22;34933;40.968;14.538;2022-09-09T03:08:52;24.40;99.90
48768;DHT22;34933;40.968;14.538;2022-09-09T03:11:41;24.40;99.90
48768;DHT22;34933;40.968;14.538;2022-09-09T03:14:26;24.40;99.90
48768;DHT22;34933;40.968;14.538;2022-09-09T03:17:11;24.40;99.90
48768;DHT22;34933;40.968;14.538;2022-09-09T03:20:06;24.40;99.90
48768;DHT22;34933;40.968;14.538;2022-09-09T03:22:52;24.50;99.90
48768;DHT22;34933;40.968;14.538;2022-09-09T03:25:37;24.40;99.90
48768;DHT22;34933;40.968;14.538;2022-09-09T03:28:23;24.40;99.90
48768;DHT22;34933;40.968;14.538;2022-09-09T03:31:14;24.50;99.90
48768;DHT22;34933;40.968;14.538;2022-09-09T03:34:00;24.60;99.90
48768;DHT22;34933;40.968;14.538;2022-09-09T03:36:48;24.60;99.90
48768;DHT22;34933;40.968;14.538;2022-09-09T03:39:33;24.70;99.90
48768;DHT22;34933;40.968;14.538;2022-09-09T03:42:18;24.70;99.90
48768;DHT22;34933;40.968;14.538;2022-09-09T03:45:05;24.70;99.90
48768;DHT22;34933;40.968;14.538;2022-09-09T03:47:50;24.80;99.90
48768;DHT22;34933;40.968;14.538;2022-09-09T03:50:35;24.80;99.90
48768;DHT22;34933;40.968;14.538;2022-09-09T03:53:21;24.80;99.90
48768;DHT22;34933;40.968;14.538;2022-09-09T03:56:07;24.80;99.90
48768;DHT22;34933;40.968;14.538;2022-09-09T03:58:51;24.80;99.90
48768;DHT22;34933;40.968;14.538;2022-09-09T04:01:36;24.70;99.90
48768;DHT22;34933;40.968;14.538;2022-09-09T04:04:21;24.70;99.90
48768;DHT22;34933;40.968;14.538;2022-09-09T04:07:06;24.70;99.90
48768;DHT22;34933;40.968;14.538;2022-09-09T04:09:51;24.70;99.90
48768;DHT22;34933;40.968;14.538;2022-09-09T04:12:37;24.60;99.90
48768;DHT22;34933;40.968;14.538;2022-09-09T04:15:22;24.70;99.90
48768;DHT22;34933;40.968;14.538;2022-09-09T04:18:06;24.70;99.90
48768;DHT22;34933;40.968;14.538;2022-09-09T04:20:52;24.80;99.90
48768;DHT22;34933;40.968;14.538;2022-09-09T04:23:39;24.90;99.90
48768;DHT22;34933;40.968;14.538;2022-09-09T04:26:24;24.90;99.90
48768;DHT22;34933;40.968;14.538;2022-09-09T04:29:08;25.00;99.90
48768;DHT22;34933;40.968;14.538;2022-09-09T04:31:53;25.00;99.90
48768;DHT22;34933;40.968;14.538;2022-09-09T04:34:38;25.00;99.90
48768;DHT22;34933;40.968;14.538;2022-09-09T04:37:22;25.10;99.90
48768;DHT22;34933;40.968;14.538;2022-09-09T04:40:10;25.10;99.90
48768;DHT22;34933;40.968;14.538;2022-09-09T04:42:57;25.20;99.90
48768;DHT22;34933;40.968;14.538;2022-09-09T04:45:42;25.20;99.90
48768;DHT22;34933;40.968;14.538;2022-09-09T04:48:27;25.30;99.90
48768;DHT22;34933;40.968;14.538;2022-09-09T04:51:13;25.40;99.90
48768;DHT22;34933;40.968;14.538;2022-09-09T04:53:59;25.50;99.90
48768;DHT22;34933;40.968;14.538;2022-09-09T04:56:43;25.50;99.90
48768;DHT22;34933;40.968;14.538;2022-09-09T04:59:29;25.60;99.90
48768;DHT22;34933;40.968;14.538;2022-09-09T05:02:16;25.50;99.90
48768;DHT22;34933;40.968;14.538;2022-09-09T05:05:00;25.50;99.90
48768;DHT22;34933;40.968;14.538;2022-09-09T05:07:45;25.60;99.90
48768;DHT22;34933;40.968;14.538;2022-09-09T05:10:33;25.60;99.90
48768;DHT22;34933;40.968;14.538;2022-09-09T05:13:17;25.60;99.90
48768;DHT22;34933;40.968;14.538;2022-09-09T05:16:02;25.60;99.90
48768;DHT22;34933;40.968;14.538;2022-09-09T05:18:47;25.60;99.90
48768;DHT22;34933;40.968;14.538;2022-09-09T05:21:32;25.50;99.90
48768;DHT22;34933;40.968;14.538;2022-09-09T05:24:17;25.50;99.90
48768;DHT22;34933;40.968;14.538;2022-09-09T05:27:03;25.50;99.90
48768;DHT22;34933;40.968;14.538;2022-09-09T05:29:48;25.50;99.90
48768;DHT22;34933;40.968;14.538;2022-09-09T05:32:32;25.60;99.90
48768;DHT22;34933;40.968;14.538;2022-09-09T05:35:18;25.60;99.90
48768;DHT22;34933;40.968;14.538;2022-09-09T05:38:04;25.50;99.90
48768;DHT22;34933;40.968;14.538;2022-09-09T05:40:48;25.60;99.90
48768;DHT22;34933;40.968;14.538;2022-09-09T05:43:34;25.60;99.90
48768;DHT22;34933;40.968;14.538;2022-09-09T05:46:22;25.60;99.90
48768;DHT22;34933;40.968;14.538;2022-09-09T05:49:09;25.60;99.90
48768;DHT22;34933;40.968;14.538;2022-09-09T05:51:56;25.60;99.90
48768;DHT22;34933;40.968;14.538;2022-09-09T05:54:41;25.70;99.90
48768;DHT22;34933;40.968;14.538;2022-09-09T05:57:26;25.70;99.90
48768;DHT22;34933;40.968;14.538;2022-09-09T06:00:11;25.70;99.90
48768;DHT22;34933;40.968;14.538;2022-09-09T06:03:03;25.80;99.90
48768;DHT22;34933;40.968;14.538;2022-09-09T06:05:57;25.80;99.90
48768;DHT22;34933;40.968;14.538;2022-09-09T06:08:43;25.80;99.90
48768;DHT22;34933;40.968;14.538;2022-09-09T06:11:30;25.80;99.90
48768;DHT22;34933;40.968;14.538;2022-09-09T06:14:20;25.80;99.90
48768;DHT22;34933;40.968;14.538;2022-09-09T06:17:07;25.60;99.90
48768;DHT22;34933;40.968;14.538;2022-09-09T06:19:52;24.10;99.90
48768;DHT22;34933;40.968;14.538;2022-09-09T06:22:39;22.80;99.90
48768;DHT22;34933;40.968;14.538;2022-09-09T06:25:25;22.30;99.90
48768;DHT22;34933;40.968;14.538;2022-09-09T06:28:10;22.10;99.90
48768;DHT22;34933;40.968;14.538;2022-09-09T06:30:59;22.00;99.90
48768;DHT22;34933;40.968;14.538;2022-09-09T06:33:44;22.10;99.90
48768;DHT22;34933;40.968;14.538;2022-09-09T06:36:32;22.10;99.90
48768;DHT22;34933;40.968;14.538;2022-09-09T06:39:17;22.20;99.90
48768;DHT22;34933;40.968;14.538;2022-09-09T06:42:03;22.10;99.90
48768;DHT22;34933;40.968;14.538;2022-09-09T06:45:03;22.00;99.90
48768;DHT22;34933;40.968;14.538;2022-09-09T06:47:57;21.90;99.90
48768;DHT22;34933;40.968;14.538;2022-09-09T06:50:42;21.70;99.90
48768;DHT22;34933;40.968;14.538;2022-09-09T06:53:28;21.70;99.90
48768;DHT22;34933;40.968;14.538;2022-09-09T06:59:03;21.50;99.90
48768;DHT22;34933;40.968;14.538;2022-09-09T07:01:50;21.50;99.90
48768;DHT22;34933;40.968;14.538;2022-09-09T07:04:37;21.60;99.90
48768;DHT22;34933;40.968;14.538;2022-09-09T07:07:22;21.60;99.90
48768;DHT22;34933;40.968;14.538;2022-09-09T07:10:09;21.60;99.90
48768;DHT22;34933;40.968;14.538;2022-09-09T07:12:55;21.70;99.90
48768;DHT22;34933;40.968;14.538;2022-09-09T07:15:42;21.70;99.90
48768;DHT22;34933;40.968;14.538;2022-09-09T07:18:27;21.80;99.90
48768;DHT22;34933;40.968;14.538;2022-09-09T07:21:13;22.00;99.90
48768;DHT22;34933;40.968;14.538;2022-09-09T07:23:59;22.10;99.90
48768;DHT22;34933;40.968;14.538;2022-09-09T07:26:44;22.30;99.90
48768;DHT22;34933;40.968;14.538;2022-09-09T07:29:30;22.30;99.90
48768;DHT22;34933;40.968;14.538;2022-09-09T07:32:15;22.30;99.90
48768;DHT22;34933;40.968;14.538;2022-09-09T07:35:01;22.40;99.90
48768;DHT22;34933;40.968;14.538;2022-09-09T07:37:46;22.50;99.90
48768;DHT22;34933;40.968;14.538;2022-09-09T07:40:30;22.60;99.90
48768;DHT22;34933;40.968;14.538;2022-09-09T07:43:16;22.80;99.90
48768;DHT22;34933;40.968;14.538;2022-09-09T07:46:03;22.90;99.90
48768;DHT22;34933;40.968;14.538;2022-09-09T07:48:50;23.00;99.90
48768;DHT22;34933;40.968;14.538;2022-09-09T07:51:46;23.10;99.90
48768;DHT22;34933;40.968;14.538;2022-09-09T07:54:33;23.10;99.90
48768;DHT22;34933;40.968;14.538;2022-09-09T07:57:19;23.00;99.90
48768;DHT22;34933;40.968;14.538;2022-09-09T08:00:04;22.90;99.90
48768;DHT22;34933;40.968;14.538;2022-09-09T08:02:56;23.10;99.90
48768;DHT22;34933;40.968;14.538;2022-09-09T08:05:41;23.30;99.90
48768;DHT22;34933;40.968;14.538;2022-09-09T08:08:28;23.20;99.90
48768;DHT22;34933;40.968;14.538;2022-09-09T08:11:14;23.30;99.90
48768;DHT22;34933;40.968;14.538;2022-09-09T08:14:00;23.30;99.90
48768;DHT22;34933;40.968;14.538;2022-09-09T08:16:47;23.40;99.90
48768;DHT22;34933;40.968;14.538;2022-09-09T08:19:35;23.40;99.90
48768;DHT22;34933;40.968;14.538;2022-09-09T08:22:23;23.70;99.90
48768;DHT22;34933;40.968;14.538;2022-09-09T08:25:08;23.70;99.90
48768;DHT22;34933;40.968;14.538;2022-09-09T08:27:55;23.90;99.90
48768;DHT22;34933;40.968;14.538;2022-09-09T08:30:40;24.30;99.90
48768;DHT22;34933;40.968;14.538;2022-09-09T08:33:24;24.70;99.90
48768;DHT22;34933;40.968;14.538;2022-09-09T08:36:11;25.00;99.90
48768;DHT22;34933;40.968;14.538;2022-09-09T08:38:57;25.30;99.90
48768;DHT22;34933;40.968;14.538;2022-09-09T08:45:20;25.70;99.90
48768;DHT22;34933;40.968;14.538;2022-09-09T08:51:15;26.20;99.90
48768;DHT22;34933;40.968;14.538;2022-09-09T08:54:03;26.40;99.90
48768;DHT22;34933;40.968;14.538;2022-09-09T08:56:50;26.50;99.90
48768;DHT22;34933;40.968;14.538;2022-09-09T08:59:35;26.70;99.90
48768;DHT22;34933;40.968;14.538;2022-09-09T09:02:38;26.90;99.90
48768;DHT22;34933;40.968;14.538;2022-09-09T09:05:28;27.10;99.90
48768;DHT22;34933;40.968;14.538;2022-09-09T09:08:39;27.20;99.90
48768;DHT22;34933;40.968;14.538;2022-09-09T09:11:26;27.40;99.90
48768;DHT22;34933;40.968;14.538;2022-09-09T09:14:34;27.60;99.90
48768;DHT22;34933;40.968;14.538;2022-09-09T09:17:24;27.70;99.90
48768;DHT22;34933;40.968;14.538;2022-09-09T09:20:21;27.90;99.90
48768;DHT22;34933;40.968;14.538;2022-09-09T09:23:16;28.00;99.90
48768;DHT22;34933;40.968;14.538;2022-09-09T09:26:07;28.10;99.90
48768;DHT22;34933;40.968;14.538;2022-09-09T09:28:56;28.30;99.90
48768;DHT22;34933;40.968;14.538;2022-09-09T09:31:52;28.50;99.90
48768;DHT22;34933;40.968;14.538;2022-09-09T09:34:40;28.60;99.90
48768;DHT22;34933;40.968;14.538;2022-09-09T09:37:31;28.80;99.90
48768;DHT22;34933;40.968;14.538;2022-09-09T09:40:20;28.80;99.90
48768;DHT22;34933;40.968;14.538;2022-09-09T09:43:06;28.90;99.90
48768;DHT22;34933;40.968;14.538;2022-09-09T09:45:53;29.00;99.90
48768;DHT22;34933;40.968;14.538;2022-09-09T09:48:37;28.90;99.90
48768;DHT22;34933;40.968;14.538;2022-09-09T09:51:22;29.10;99.90
48768;DHT22;34933;40.968;14.538;2022-09-09T09:57:11;29.40;99.90
48768;DHT22;34933;40.968;14.538;2022-09-09T10:00:19;29.60;99.90
48768;DHT22;34933;40.968;14.538;2022-09-09T10:06:11;30.00;99.90
48768;DHT22;34933;40.968;14.538;2022-09-09T10:08:56;30.10;99.90
48768;DHT22;34933;40.968;14.538;2022-09-09T10:18:45;30.20;99.90
48768;DHT22;34933;40.968;14.538;2022-09-09T10:21:25;30.20;99.90
48768;DHT22;34933;40.968;14.538;2022-09-09T10:27:28;30.20;99.90
48768;DHT22;34933;40.968;14.538;2022-09-09T10:30:18;30.40;99.90
48768;DHT22;34933;40.968;14.538;2022-09-09T10:36:20;30.80;99.90
48768;DHT22;34933;40.968;14.538;2022-09-09T10:39:18;31.00;99.90
48768;DHT22;34933;40.968;14.538;2022-09-09T10:42:09;31.20;99.90
48768;DHT22;34933;40.968;14.538;2022-09-09T10:45:20;31.30;99.90
48768;DHT22;34933;40.968;14.538;2022-09-09T10:55:00;31.70;99.90
48768;DHT22;34933;40.968;14.538;2022-09-09T10:57:48;31.60;99.90
48768;DHT22;34933;40.968;14.538;2022-09-09T11:00:43;31.80;99.90
48768;DHT22;34933;40.968;14.538;2022-09-09T11:03:30;32.10;99.90
48768;DHT22;34933;40.968;14.538;2022-09-09T11:06:20;32.10;99.90
48768;DHT22;34933;40.968;14.538;2022-09-09T11:09:13;32.10;99.90
48768;DHT22;34933;40.968;14.538;2022-09-09T11:12:01;32.20;99.90
48768;DHT22;34933;40.968;14.538;2022-09-09T11:14:59;32.80;99.90
48768;DHT22;34933;40.968;14.538;2022-09-09T11:17:50;32.70;99.90
48768;DHT22;34933;40.968;14.538;2022-09-09T11:20:37;32.50;99.90
48768;DHT22;34933;40.968;14.538;2022-09-09T11:23:32;32.90;99.90
48768;DHT22;34933;40.968;14.538;2022-09-09T11:26:55;33.20;99.90
48768;DHT22;34933;40.968;14.538;2022-09-09T11:32:54;33.00;99.90
48768;DHT22;34933;40.968;14.538;2022-09-09T11:38:52;32.40;99.90
48768;DHT22;34933;40.968;14.538;2022-09-09T11:41:37;32.80;99.90
48768;DHT22;34933;40.968;14.538;2022-09-09T11:44:31;32.50;99.90
48768;DHT22;34933;40.968;14.538;2022-09-09T11:47:34;32.90;99.90
48768;DHT22;34933;40.968;14.538;2022-09-09T11:53:22;34.10;99.90
48768;DHT22;34933;40.968;14.538;2022-09-09T11:56:12;33.90;99.90
48768;DHT22;34933;40.968;14.538;2022-09-09T11:59:02;34.00;99.90
48768;DHT22;34933;40.968;14.538;2022-09-09T12:02:22;34.10;99.90
48768;DHT22;34933;40.968;14.538;2022-09-09T12:05:11;33.80;99.90
48768;DHT22;34933;40.968;14.538;2022-09-09T12:07:58;33.70;99.90
48768;DHT22;34933;40.968;14.538;2022-09-09T12:10:58;33.60;99.90
48768;DHT22;34933;40.968;14.538;2022-09-09T12:13:55;33.90;99.90
48768;DHT22;34933;40.968;14.538;2022-09-09T12:16:40;33.80;99.90
48768;DHT22;34933;40.968;14.538;2022-09-09T12:19:25;34.10;99.90
48768;DHT22;34933;40.968;14.538;2022-09-09T12:25:08;34.40;99.90
48768;DHT22;34933;40.968;14.538;2022-09-09T12:33:52;35.10;99.90
48768;DHT22;34933;40.968;14.538;2022-09-09T12:36:37;35.00;99.90
48768;DHT22;34933;40.968;14.538;2022-09-09T12:39:31;35.40;99.90
48768;DHT22;34933;40.968;14.538;2022-09-09T12:42:20;35.30;99.90
48768;DHT22;34933;40.968;14.538;2022-09-09T12:45:19;35.20;99.90
48768;DHT22;34933;40.968;14.538;2022-09-09T12:48:07;35.20;99.90
48768;DHT22;34933;40.968;14.538;2022-09-09T12:50:53;34.90;99.90
48768;DHT22;34933;40.968;14.538;2022-09-09T12:53:39;34.80;99.90
48768;DHT22;34933;40.968;14.538;2022-09-09T12:56:25;34.60;99.90
48768;DHT22;34933;40.968;14.538;2022-09-09T12:59:25;34.40;99.90
48768;DHT22;34933;40.968;14.538;2022-09-09T13:02:25;34.50;99.90
48768;DHT22;34933;40.968;14.538;2022-09-09T13:05:20;34.60;99.90
48768;DHT22;34933;40.968;14.538;2022-09-09T13:08:06;35.00;99.90
48768;DHT22;34933;40.968;14.538;2022-09-09T13:11:00;35.80;99.90
48768;DHT22;34933;40.968;14.538;2022-09-09T13:13:54;36.50;99.90
48768;DHT22;34933;40.968;14.538;2022-09-09T13:16:39;36.30;99.40
48768;DHT22;34933;40.968;14.538;2022-09-09T13:19:24;36.60;99.40
48768;DHT22;34933;40.968;14.538;2022-09-09T13:22:16;36.20;99.60
48768;DHT22;34933;40.968;14.538;2022-09-09T13:28:00;36.10;99.90
48768;DHT22;34933;40.968;14.538;2022-09-09T13:30:59;35.40;99.90
48768;DHT22;34933;40.968;14.538;2022-09-09T13:33:44;35.30;99.90
48768;DHT22;34933;40.968;14.538;2022-09-09T13:36:34;36.20;99.90
48768;DHT22;34933;40.968;14.538;2022-09-09T13:39:19;36.10;99.20
48768;DHT22;34933;40.968;14.538;2022-09-09T13:42:04;35.80;98.90
48768;DHT22;34933;40.968;14.538;2022-09-09T13:44:49;36.20;99.50
48768;DHT22;34933;40.968;14.538;2022-09-09T13:47:35;36.20;98.80
48768;DHT22;34933;40.968;14.538;2022-09-09T13:50:30;36.60;99.50
48768;DHT22;34933;40.968;14.538;2022-09-09T13:53:15;37.20;98.70
48768;DHT22;34933;40.968;14.538;2022-09-09T13:55:59;37.30;98.10
48768;DHT22;34933;40.968;14.538;2022-09-09T13:58:45;37.60;97.80
48768;DHT22;34933;40.968;14.538;2022-09-09T14:01:29;37.60;97.90
48768;DHT22;34933;40.968;14.538;2022-09-09T14:04:14;37.90;96.60
48768;DHT22;34933;40.968;14.538;2022-09-09T14:07:00;38.10;96.90
48768;DHT22;34933;40.968;14.538;2022-09-09T14:09:44;38.40;96.50
48768;DHT22;34933;40.968;14.538;2022-09-09T14:12:34;38.70;96.40
48768;DHT22;34933;40.968;14.538;2022-09-09T14:15:20;38.30;95.30
48768;DHT22;34933;40.968;14.538;2022-09-09T14:18:06;38.40;95.90
48768;DHT22;34933;40.968;14.538;2022-09-09T14:20:50;39.00;95.20
48768;DHT22;34933;40.968;14.538;2022-09-09T14:23:35;39.00;93.90
48768;DHT22;34933;40.968;14.538;2022-09-09T14:26:20;39.20;94.40
48768;DHT22;34933;40.968;14.538;2022-09-09T14:29:05;38.80;93.50
48768;DHT22;34933;40.968;14.538;2022-09-09T14:31:50;37.10;94.00
48768;DHT22;34933;40.968;14.538;2022-09-09T14:34:34;35.80;94.70
48768;DHT22;34933;40.968;14.538;2022-09-09T14:37:19;35.00;95.40
48768;DHT22;34933;40.968;14.538;2022-09-09T14:40:05;34.30;94.40
48768;DHT22;34933;40.968;14.538;2022-09-09T14:42:49;34.30;95.70
48768;DHT22;34933;40.968;14.538;2022-09-09T14:45:35;33.70;96.50
48768;DHT22;34933;40.968;14.538;2022-09-09T14:48:21;32.80;97.90
48768;DHT22;34933;40.968;14.538;2022-09-09T14:51:15;32.30;98.70
48768;DHT22;34933;40.968;14.538;2022-09-09T14:54:00;32.10;99.40
48768;DHT22;34933;40.968;14.538;2022-09-09T14:56:46;31.80;99.90
48768;DHT22;34933;40.968;14.538;2022-09-09T14:59:31;32.10;99.70
48768;DHT22;34933;40.968;14.538;2022-09-09T15:02:16;32.20;99.30
48768;DHT22;34933;40.968;14.538;2022-09-09T15:05:00;31.90;99.50
48768;DHT22;34933;40.968;14.538;2022-09-09T15:07:45;31.60;99.80
48768;DHT22;34933;40.968;14.538;2022-09-09T15:10:31;31.40;99.90
48768;DHT22;34933;40.968;14.538;2022-09-09T15:13:17;31.20;99.90
48768;DHT22;34933;40.968;14.538;2022-09-09T15:18:55;30.60;99.90
48768;DHT22;34933;40.968;14.538;2022-09-09T15:21:39;30.40;99.90
48768;DHT22;34933;40.968;14.538;2022-09-09T15:24:24;30.50;99.90
48768;DHT22;34933;40.968;14.538;2022-09-09T15:27:10;30.50;99.90
48768;DHT22;34933;40.968;14.538;2022-09-09T15:29:54;30.30;99.90
48768;DHT22;34933;40.968;14.538;2022-09-09T15:32:39;30.30;99.90
48768;DHT22;34933;40.968;14.538;2022-09-09T15:35:23;30.30;99.90
48768;DHT22;34933;40.968;14.538;2022-09-09T15:38:08;31.20;99.90
48768;DHT22;34933;40.968;14.538;2022-09-09T15:40:54;32.90;99.40
48768;DHT22;34933;40.968;14.538;2022-09-09T15:43:45;34.00;98.10
48768;DHT22;34933;40.968;14.538;2022-09-09T15:46:35;34.60;97.80
48768;DHT22;34933;40.968;14.538;2022-09-09T15:49:23;34.70;98.00
48768;DHT22;34933;40.968;14.538;2022-09-09T15:52:10;35.10;97.50
48768;DHT22;34933;40.968;14.538;2022-09-09T15:54:55;35.20;97.10
48768;DHT22;34933;40.968;14.538;2022-09-09T15:57:40;35.10;97.50
48768;DHT22;34933;40.968;14.538;2022-09-09T16:00:25;35.20;97.10
48768;DHT22;34933;40.968;14.538;2022-09-09T16:03:09;35.00;95.10
48768;DHT22;34933;40.968;14.538;2022-09-09T16:05:55;34.90;95.00
48768;DHT22;34933;40.968;14.538;2022-09-09T16:08:42;34.40;95.80
48768;DHT22;34933;40.968;14.538;2022-09-09T16:11:33;34.00;96.70
48768;DHT22;34933;40.968;14.538;2022-09-09T16:14:20;33.40;97.50
48768;DHT22;34933;40.968;14.538;2022-09-09T16:17:05;33.00;98.30
48768;DHT22;34933;40.968;14.538;2022-09-09T16:19:50;32.40;98.70
48768;DHT22;34933;40.968;14.538;2022-09-09T16:22:35;31.70;99.90
48768;DHT22;34933;40.968;14.538;2022-09-09T16:25:20;30.80;99.90
48768;DHT22;34933;40.968;14.538;2022-09-09T16:28:05;30.20;99.90
48768;DHT22;34933;40.968;14.538;2022-09-09T16:30:50;29.70;99.90
48768;DHT22;34933;40.968;14.538;2022-09-09T16:33:36;29.50;99.90
48768;DHT22;34933;40.968;14.538;2022-09-09T16:36:22;29.30;99.90
48768;DHT22;34933;40.968;14.538;2022-09-09T16:39:19;29.50;99.90
48768;DHT22;34933;40.968;14.538;2022-09-09T16:42:04;29.80;99.90
48768;DHT22;34933;40.968;14.538;2022-09-09T16:44:49;29.80;99.90
48768;DHT22;34933;40.968;14.538;2022-09-09T16:47:34;29.80;99.90
48768;DHT22;34933;40.968;14.538;2022-09-09T16:50:19;29.50;99.90
48768;DHT22;34933;40.968;14.538;2022-09-09T16:53:04;29.20;99.90
48768;DHT22;34933;40.968;14.538;2022-09-09T16:55:53;28.90;99.90
48768;DHT22;34933;40.968;14.538;2022-09-09T16:58:38;28.70;99.90
48768;DHT22;34933;40.968;14.538;2022-09-09T17:01:23;28.50;99.90
48768;DHT22;34933;40.968;14.538;2022-09-09T17:04:10;28.40;99.90
48768;DHT22;34933;40.968;14.538;2022-09-09T17:06:57;28.20;99.90
48768;DHT22;34933;40.968;14.538;2022-09-09T17:09:44;28.00;99.90
48768;DHT22;34933;40.968;14.538;2022-09-09T17:12:29;27.90;99.90
48768;DHT22;34933;40.968;14.538;2022-09-09T17:15:14;27.70;99.90
48768;DHT22;34933;40.968;14.538;2022-09-09T17:17:59;27.60;99.90
48768;DHT22;34933;40.968;14.538;2022-09-09T17:20:44;27.40;99.90
48768;DHT22;34933;40.968;14.538;2022-09-09T17:23:28;27.30;99.90
48768;DHT22;34933;40.968;14.538;2022-09-09T17:26:16;27.10;99.90
48768;DHT22;34933;40.968;14.538;2022-09-09T17:29:01;26.90;99.90
48768;DHT22;34933;40.968;14.538;2022-09-09T17:31:46;26.80;99.90
48768;DHT22;34933;40.968;14.538;2022-09-09T17:34:31;26.80;99.90
48768;DHT22;34933;40.968;14.538;2022-09-09T17:37:15;26.60;99.90
48768;DHT22;34933;40.968;14.538;2022-09-09T17:40:00;26.60;99.90
48768;DHT22;34933;40.968;14.538;2022-09-09T17:42:45;26.50;99.90
48768;DHT22;34933;40.968;14.538;2022-09-09T17:45:30;26.50;99.90
48768;DHT22;34933;40.968;14.538;2022-09-09T17:48:14;26.40;99.90
48768;DHT22;34933;40.968;14.538;2022-09-09T17:50:59;26.30;99.90
48768;DHT22;34933;40.968;14.538;2022-09-09T17:53:46;26.30;99.90
48768;DHT22;34933;40.968;14.538;2022-09-09T17:56:31;26.30;99.90
48768;DHT22;34933;40.968;14.538;2022-09-09T17:59:17;26.30;99.90
48768;DHT22;34933;40.968;14.538;2022-09-09T18:02:02;26.30;99.90
48768;DHT22;34933;40.968;14.538;2022-09-09T18:04:48;26.20;99.90
48768;DHT22;34933;40.968;14.538;2022-09-09T18:07:33;26.20;99.90
48768;DHT22;34933;40.968;14.538;2022-09-09T18:10:18;26.10;99.90
48768;DHT22;34933;40.968;14.538;2022-09-09T18:13:02;26.00;99.90
48768;DHT22;34933;40.968;14.538;2022-09-09T18:15:47;26.00;99.90
48768;DHT22;34933;40.968;14.538;2022-09-09T18:18:31;26.00;99.90
48768;DHT22;34933;40.968;14.538;2022-09-09T18:21:17;26.00;99.90
48768;DHT22;34933;40.968;14.538;2022-09-09T18:24:04;25.90;99.90
48768;DHT22;34933;40.968;14.538;2022-09-09T18:26:49;25.80;99.90
48768;DHT22;34933;40.968;14.538;2022-09-09T18:29:34;25.80;99.90
48768;DHT22;34933;40.968;14.538;2022-09-09T18:32:18;25.80;99.90
48768;DHT22;34933;40.968;14.538;2022-09-09T18:35:03;25.70;99.90
48768;DHT22;34933;40.968;14.538;2022-09-09T18:37:48;25.60;99.90
48768;DHT22;34933;40.968;14.538;2022-09-09T18:40:33;25.60;99.90
48768;DHT22;34933;40.968;14.538;2022-09-09T18:43:18;25.60;99.90
48768;DHT22;34933;40.968;14.538;2022-09-09T18:46:03;25.50;99.90
48768;DHT22;34933;40.968;14.538;2022-09-09T18:48:49;25.50;99.90
48768;DHT22;34933;40.968;14.538;2022-09-09T18:51:34;25.50;99.90
48768;DHT22;34933;40.968;14.538;2022-09-09T18:54:22;25.40;99.90
48768;DHT22;34933;40.968;14.538;2022-09-09T18:57:07;25.40;99.90
48768;DHT22;34933;40.968;14.538;2022-09-09T18:59:52;25.30;99.90
48768;DHT22;34933;40.968;14.538;2022-09-09T19:02:39;25.30;99.90
48768;DHT22;34933;40.968;14.538;2022-09-09T19:05:23;25.20;99.90
48768;DHT22;34933;40.968;14.538;2022-09-09T19:08:08;25.30;99.90
48768;DHT22;34933;40.968;14.538;2022-09-09T19:10:53;25.20;99.90
48768;DHT22;34933;40.968;14.538;2022-09-09T19:13:38;25.30;99.90